Three Notch, Alabama
Current Conditions -  °F | °C
As of 8:58 PM on Monday 26 Jan 2015 (Local Time) from KEUF Reporting Station
Clear Clear  
Wind Chill: 32°   Ceiling: Unl
Heat Index: 32°   Visibility: 10mi
Dew Point: 30°   Wind: 0mph
Humidity: 92%   Direction: NA
Pressure: 29.98"   Gusts: NA
Location:  32.1076°N, 85.5256°W
Report Text: KEUF 270258Z AUTO 00000KT 10SM CLR 00/M01 A2998 RMK AO2 RAB11E21 SLP152 P0000 60000 T00001011 50001
Loading
Personal Weather Stations






























Interactive Weather Map New forecast layout! Learn more

10-Day Weather Forecast

Advertisements
Track Severe Weather on mobile